createdAt,value
2022-08-26T00:01:45.206Z,25.50
2022-08-26T00:04:12.559Z,25.50
2022-08-26T00:06:42.501Z,25.50
2022-08-26T00:09:16.157Z,25.50
2022-08-26T00:11:45.438Z,25.50
2022-08-26T00:14:13.837Z,25.50
2022-08-26T00:16:47.940Z,25.50
2022-08-26T00:19:17.052Z,25.50
2022-08-26T00:21:43.959Z,25.50
2022-08-26T00:24:11.084Z,25.40
2022-08-26T00:26:38.715Z,25.40
2022-08-26T00:29:08.209Z,25.40
2022-08-26T00:31:36.314Z,25.40
2022-08-26T00:34:04.468Z,25.40
2022-08-26T00:36:32.053Z,25.40
2022-08-26T00:38:59.140Z,25.40
2022-08-26T00:41:26.200Z,25.40
2022-08-26T00:43:56.182Z,25.40
2022-08-26T00:46:29.719Z,25.30
2022-08-26T00:49:11.868Z,25.30
2022-08-26T00:51:47.630Z,25.30
2022-08-26T00:54:16.601Z,25.30
2022-08-26T00:56:53.812Z,25.30
2022-08-26T00:59:21.631Z,25.20
2022-08-26T01:01:48.525Z,25.20
2022-08-26T01:04:22.151Z,25.20
2022-08-26T01:06:52.260Z,25.20
2022-08-26T01:09:20.144Z,25.20
2022-08-26T01:11:49.549Z,25.20
2022-08-26T01:14:17.522Z,25.20
2022-08-26T01:16:48.337Z,25.20
2022-08-26T01:19:45.805Z,25.20
2022-08-26T01:22:31.048Z,25.20
2022-08-26T01:25:04.724Z,25.20
2022-08-26T01:27:33.652Z,25.20
2022-08-26T01:30:05.062Z,25.20
2022-08-26T01:32:34.256Z,25.10
2022-08-26T01:35:02.090Z,25.10
2022-08-26T01:37:40.288Z,25.10
2022-08-26T01:40:11.353Z,25.10
2022-08-26T01:42:40.594Z,25.10
2022-08-26T01:45:13.427Z,25.10
2022-08-26T01:47:41.643Z,25.10
2022-08-26T01:50:15.689Z,25.10
2022-08-26T01:52:54.783Z,25.00
2022-08-26T01:55:32.111Z,25.00
2022-08-26T01:58:04.803Z,25.00
2022-08-26T02:00:37.042Z,25.00
2022-08-26T02:03:18.872Z,25.00
2022-08-26T02:05:51.294Z,25.00
2022-08-26T02:08:24.764Z,25.00
2022-08-26T02:10:54.562Z,25.00
2022-08-26T02:13:23.438Z,24.90
2022-08-26T02:15:52.170Z,24.90
2022-08-26T02:18:20.040Z,24.90
2022-08-26T02:20:46.912Z,24.90
2022-08-26T02:23:18.575Z,24.90
2022-08-26T02:26:04.132Z,24.90
2022-08-26T02:28:35.904Z,24.90
2022-08-26T02:31:03.292Z,24.90
2022-08-26T02:33:31.504Z,24.90
2022-08-26T02:35:59.211Z,24.90
2022-08-26T02:38:26.088Z,24.80
2022-08-26T02:40:52.993Z,24.80
2022-08-26T02:43:19.694Z,24.80
2022-08-26T02:46:00.798Z,24.80
2022-08-26T02:48:28.880Z,24.80
2022-08-26T02:50:55.566Z,24.80
2022-08-26T02:53:25.387Z,24.80
2022-08-26T02:55:52.695Z,24.80
2022-08-26T02:58:20.603Z,24.80
2022-08-26T03:00:52.645Z,24.70
2022-08-26T03:03:22.429Z,24.70
2022-08-26T03:05:51.417Z,24.70
2022-08-26T03:08:18.475Z,24.70
2022-08-26T03:10:46.452Z,24.70
2022-08-26T03:13:15.103Z,24.70
2022-08-26T03:15:42.006Z,24.70
2022-08-26T03:18:09.604Z,24.70
2022-08-26T03:20:37.033Z,24.70
2022-08-26T03:23:03.746Z,24.70
2022-08-26T03:25:31.152Z,24.70
2022-08-26T03:27:58.116Z,24.70
2022-08-26T03:30:44.773Z,24.70
2022-08-26T03:33:13.505Z,24.60
2022-08-26T03:35:43.409Z,24.60
2022-08-26T03:38:10.475Z,24.70
2022-08-26T03:40:39.027Z,24.60
2022-08-26T03:43:09.715Z,24.60
2022-08-26T03:45:37.510Z,24.60
2022-08-26T03:48:05.439Z,24.60
2022-08-26T03:50:34.230Z,24.60
2022-08-26T03:53:02.942Z,24.50
2022-08-26T03:55:33.407Z,24.60
2022-08-26T03:58:01.140Z,24.50
2022-08-26T04:00:28.624Z,24.50
2022-08-26T04:02:55.420Z,24.50
2022-08-26T04:05:23.639Z,24.50
2022-08-26T04:07:51.731Z,24.50
2022-08-26T04:10:28.711Z,24.50
2022-08-26T04:12:58.972Z,24.50
2022-08-26T04:15:26.840Z,24.50
2022-08-26T04:17:53.933Z,24.50
2022-08-26T04:20:22.600Z,24.50
2022-08-26T04:22:49.341Z,24.50
2022-08-26T04:25:16.706Z,24.50
2022-08-26T04:27:43.399Z,24.50
2022-08-26T04:30:11.303Z,24.50
2022-08-26T04:32:38.948Z,24.50
2022-08-26T04:35:08.789Z,24.40
2022-08-26T04:37:35.855Z,24.40
2022-08-26T04:40:02.928Z,24.40
2022-08-26T04:42:33.619Z,24.40
2022-08-26T04:45:01.309Z,24.40
2022-08-26T04:47:32.608Z,24.40
2022-08-26T04:50:02.962Z,24.40
2022-08-26T04:52:29.673Z,24.30
2022-08-26T04:54:57.852Z,24.40
2022-08-26T04:57:24.726Z,24.40
2022-08-26T04:59:51.774Z,24.30
2022-08-26T05:02:19.519Z,24.30
2022-08-26T05:04:46.355Z,24.30
2022-08-26T05:07:13.086Z,24.30
2022-08-26T05:09:40.616Z,24.30
2022-08-26T05:12:07.714Z,24.30
2022-08-26T05:14:36.089Z,24.30
2022-08-26T05:17:03.724Z,24.30
2022-08-26T05:19:31.652Z,24.30
2022-08-26T05:21:59.657Z,24.30
2022-08-26T05:24:26.445Z,24.30
2022-08-26T05:26:54.286Z,24.30
2022-08-26T05:29:23.577Z,24.30
2022-08-26T05:31:52.154Z,24.30
2022-08-26T05:34:19.201Z,24.30
2022-08-26T05:36:47.082Z,24.30
2022-08-26T05:39:13.827Z,24.20
2022-08-26T05:41:44.755Z,24.20
2022-08-26T05:44:14.602Z,24.20
2022-08-26T05:46:44.883Z,24.20
2022-08-26T05:49:14.321Z,24.20
2022-08-26T05:51:45.140Z,24.20
2022-08-26T05:54:12.374Z,24.20
2022-08-26T05:56:39.650Z,24.20
2022-08-26T05:59:10.905Z,24.20
2022-08-26T06:01:42.804Z,24.20
2022-08-26T06:04:10.395Z,24.20
2022-08-26T06:06:41.256Z,24.20
2022-08-26T06:09:11.063Z,24.10
2022-08-26T06:11:38.940Z,24.20
2022-08-26T06:14:08.230Z,24.10
2022-08-26T06:16:38.581Z,24.10
2022-08-26T06:19:10.390Z,24.10
2022-08-26T06:21:40.263Z,24.10
2022-08-26T06:24:29.299Z,24.10
2022-08-26T06:27:01.102Z,24.10
2022-08-26T06:29:28.877Z,24.10
2022-08-26T06:31:59.631Z,24.10
2022-08-26T06:34:30.925Z,24.00
2022-08-26T06:37:01.216Z,24.00
2022-08-26T06:39:32.486Z,24.00
2022-08-26T06:42:00.804Z,24.00
2022-08-26T06:44:30.492Z,24.00
2022-08-26T06:46:59.054Z,24.00
2022-08-26T06:49:27.510Z,23.90
2022-08-26T06:51:58.403Z,24.00
2022-08-26T06:54:25.869Z,24.00
2022-08-26T06:56:53.022Z,24.00
2022-08-26T06:59:21.715Z,23.90
2022-08-26T07:01:48.667Z,23.90
2022-08-26T07:04:20.134Z,23.90
2022-08-26T07:06:52.386Z,23.90
2022-08-26T07:09:20.579Z,23.90
2022-08-26T07:11:48.132Z,23.90
2022-08-26T07:14:16.806Z,23.90
2022-08-26T07:16:47.513Z,23.90
2022-08-26T07:19:14.455Z,23.90
2022-08-26T07:21:44.142Z,23.90
2022-08-26T07:24:11.375Z,23.90
2022-08-26T07:26:38.818Z,23.90
2022-08-26T07:29:12.446Z,23.90
2022-08-26T07:31:42.722Z,23.90
2022-08-26T07:34:15.004Z,23.90
2022-08-26T07:36:41.808Z,23.90
2022-08-26T07:39:11.727Z,24.00
2022-08-26T07:41:38.544Z,24.00
2022-08-26T07:47:24.707Z,24.00
2022-08-26T07:49:53.346Z,24.00
2022-08-26T07:52:25.539Z,24.00
2022-08-26T07:54:53.843Z,24.00
2022-08-26T07:57:20.761Z,24.00
2022-08-26T07:59:47.841Z,24.10
2022-08-26T08:02:14.578Z,24.10
2022-08-26T08:04:41.493Z,24.10
2022-08-26T08:07:11.618Z,24.10
2022-08-26T08:09:40.735Z,24.10
2022-08-26T08:12:07.938Z,24.20
2022-08-26T08:14:41.003Z,24.20
2022-08-26T08:17:08.893Z,24.20
2022-08-26T08:19:38.947Z,24.20
2022-08-26T08:22:17.000Z,24.20
2022-08-26T08:24:49.909Z,24.20
2022-08-26T08:27:23.766Z,24.20
2022-08-26T08:29:54.091Z,24.30
2022-08-26T08:32:22.402Z,24.20
2022-08-26T08:34:49.427Z,24.30
2022-08-26T08:37:16.293Z,24.30
2022-08-26T08:39:43.645Z,24.30
2022-08-26T08:42:43.919Z,24.30
2022-08-26T08:45:18.499Z,24.30
2022-08-26T08:47:50.237Z,24.30
2022-08-26T08:50:26.094Z,24.30
2022-08-26T08:53:02.923Z,24.40
2022-08-26T08:55:58.266Z,24.40
2022-08-26T08:58:44.474Z,24.40
2022-08-26T09:01:21.867Z,24.40
2022-08-26T09:03:57.757Z,24.40
2022-08-26T09:06:28.634Z,24.40
2022-08-26T09:08:57.199Z,24.40
2022-08-26T09:11:24.933Z,24.30
2022-08-26T09:13:54.188Z,24.30
2022-08-26T09:16:59.428Z,24.30
2022-08-26T09:19:43.176Z,24.30
2022-08-26T09:22:10.066Z,24.30
2022-08-26T09:24:42.156Z,24.30
2022-08-26T09:27:42.789Z,24.30
2022-08-26T09:30:12.759Z,24.30
2022-08-26T09:32:40.434Z,24.40
2022-08-26T09:35:23.655Z,24.30
2022-08-26T09:40:35.864Z,24.40
2022-08-26T09:43:15.926Z,24.40
2022-08-26T09:45:59.384Z,24.40
2022-08-26T09:48:29.120Z,24.40
2022-08-26T09:51:00.226Z,24.40
2022-08-26T09:53:34.447Z,24.40
2022-08-26T09:56:18.289Z,24.40
2022-08-26T09:58:47.503Z,24.40
2022-08-26T10:01:23.316Z,24.40
2022-08-26T10:03:51.460Z,24.40
2022-08-26T10:06:18.288Z,24.40
2022-08-26T10:08:57.562Z,24.40
2022-08-26T10:11:33.541Z,24.40
2022-08-26T10:14:14.203Z,24.40
2022-08-26T10:17:09.303Z,24.50
2022-08-26T10:19:57.165Z,24.50
2022-08-26T10:22:42.375Z,24.50
2022-08-26T10:25:16.606Z,24.50
2022-08-26T10:28:00.513Z,24.40
2022-08-26T10:30:52.384Z,24.50
2022-08-26T10:33:19.265Z,24.40
2022-08-26T10:35:55.710Z,24.40
2022-08-26T10:38:34.257Z,24.50
2022-08-26T10:41:24.113Z,24.50
2022-08-26T10:43:59.619Z,24.50
2022-08-26T10:46:36.536Z,24.50
2022-08-26T10:49:08.787Z,24.50
2022-08-26T10:51:59.404Z,24.50
2022-08-26T10:54:44.137Z,24.50
2022-08-26T10:57:15.412Z,24.50
2022-08-26T11:00:23.270Z,24.50
2022-08-26T11:03:24.800Z,24.40
2022-08-26T11:06:16.342Z,24.50
2022-08-26T11:08:48.317Z,24.40
2022-08-26T11:11:39.787Z,24.50
2022-08-26T11:14:29.738Z,24.40
2022-08-26T11:16:58.708Z,24.40
2022-08-26T11:19:59.384Z,24.40
2022-08-26T11:22:35.119Z,24.50
2022-08-26T11:25:09.416Z,24.50
2022-08-26T11:27:38.416Z,24.50
2022-08-26T11:30:05.251Z,24.50
2022-08-26T11:32:34.764Z,24.50
2022-08-26T11:35:29.556Z,24.50
2022-08-26T11:38:04.806Z,24.50
2022-08-26T11:40:38.447Z,24.50
2022-08-26T11:43:19.037Z,24.50
2022-08-26T11:46:10.594Z,24.50
2022-08-26T11:48:40.262Z,24.60
2022-08-26T11:51:21.115Z,24.50
2022-08-26T12:32:35.373Z,24.70
2022-08-26T12:35:07.848Z,24.70
2022-08-26T12:37:37.974Z,24.70
2022-08-26T12:40:43.534Z,24.70
2022-08-26T12:43:14.851Z,24.80
2022-08-26T12:45:57.265Z,24.80
2022-08-26T12:48:36.087Z,24.80
2022-08-26T12:51:05.956Z,24.80
2022-08-26T12:53:34.914Z,24.80
2022-08-26T12:56:25.672Z,24.80
2022-08-26T12:59:06.163Z,24.80
2022-08-26T13:01:39.052Z,24.80
2022-08-26T13:04:06.904Z,24.80
2022-08-26T13:06:34.957Z,24.80
2022-08-26T13:09:24.596Z,24.80
2022-08-26T13:11:53.345Z,24.80
2022-08-26T13:17:05.182Z,24.80
2022-08-26T13:19:32.367Z,24.90
2022-08-26T13:22:00.590Z,25.00
2022-08-26T13:24:40.298Z,24.90
2022-08-26T13:27:10.102Z,25.00
2022-08-26T13:29:37.090Z,25.00
2022-08-26T13:32:06.093Z,25.10
2022-08-26T13:34:33.472Z,25.10
2022-08-26T13:37:03.027Z,25.20
2022-08-26T13:39:31.288Z,25.10
2022-08-26T13:41:58.576Z,25.20
2022-08-26T13:44:25.807Z,25.20
2022-08-26T13:46:52.632Z,25.20
2022-08-26T13:49:19.356Z,25.20
2022-08-26T13:51:46.030Z,25.20
2022-08-26T13:54:12.790Z,25.20
2022-08-26T13:56:39.751Z,25.20
2022-08-26T13:59:06.818Z,25.20
2022-08-26T14:01:35.241Z,25.20
2022-08-26T14:04:02.953Z,25.20
2022-08-26T14:06:30.224Z,25.20
2022-08-26T14:08:57.281Z,25.20
2022-08-26T14:11:24.923Z,25.20
2022-08-26T14:13:52.040Z,25.20
2022-08-26T14:16:28.405Z,25.20
2022-08-26T14:18:55.226Z,25.20
2022-08-26T14:21:22.104Z,25.20
2022-08-26T14:23:48.811Z,25.20
2022-08-26T14:26:28.248Z,25.20
2022-08-26T14:28:57.881Z,25.20
2022-08-26T14:31:26.768Z,25.20
2022-08-26T14:33:53.900Z,25.20
2022-08-26T14:36:31.215Z,25.20
2022-08-26T14:39:01.814Z,25.20
2022-08-26T14:41:30.164Z,25.30
2022-08-26T14:44:11.351Z,25.20
2022-08-26T14:46:48.552Z,25.30
2022-08-26T14:49:17.490Z,25.30
2022-08-26T14:51:47.680Z,25.40
2022-08-26T14:54:18.172Z,25.40
2022-08-26T14:56:54.740Z,25.40
2022-08-26T14:59:30.825Z,25.50
2022-08-26T15:01:58.568Z,25.40
2022-08-26T15:04:25.451Z,25.40
2022-08-26T15:06:57.423Z,25.40
2022-08-26T15:09:25.201Z,25.40
2022-08-26T15:11:53.106Z,25.40
2022-08-26T15:14:21.015Z,25.40
2022-08-26T15:16:49.715Z,25.40
2022-08-26T15:19:17.106Z,25.40
2022-08-26T15:21:45.561Z,25.40
2022-08-26T15:24:13.601Z,25.40
2022-08-26T15:26:40.712Z,25.40
2022-08-26T15:29:07.462Z,25.40
2022-08-26T15:31:34.431Z,25.40
2022-08-26T15:34:04.889Z,25.40
2022-08-26T15:36:33.128Z,25.40
2022-08-26T15:39:00.952Z,25.40
2022-08-26T15:41:34.957Z,25.40
2022-08-26T15:44:03.563Z,25.40
2022-08-26T15:46:31.564Z,25.40
2022-08-26T15:48:58.337Z,25.30
2022-08-26T15:51:31.363Z,25.40
2022-08-26T15:53:58.869Z,25.40
2022-08-26T15:56:32.590Z,25.40
2022-08-26T15:59:02.238Z,25.40
2022-08-26T16:01:30.302Z,25.40
2022-08-26T16:03:57.856Z,25.40
2022-08-26T16:06:27.880Z,25.40
2022-08-26T16:08:56.091Z,25.40
2022-08-26T16:11:24.199Z,25.40
2022-08-26T16:13:51.527Z,25.40
2022-08-26T16:16:18.875Z,25.40
2022-08-26T16:18:45.635Z,25.40
2022-08-26T16:21:24.954Z,25.40
2022-08-26T16:23:52.085Z,25.40
2022-08-26T16:26:22.651Z,25.40
2022-08-26T16:28:49.492Z,25.40
2022-08-26T16:31:17.047Z,25.40
2022-08-26T16:33:46.508Z,25.30
2022-08-26T16:36:14.987Z,25.40
2022-08-26T16:38:45.819Z,25.40
2022-08-26T16:41:12.516Z,25.30
2022-08-26T16:43:39.203Z,25.40
2022-08-26T16:46:07.032Z,25.30
2022-08-26T16:48:34.454Z,25.40
2022-08-26T16:51:02.911Z,25.40
2022-08-26T16:53:29.606Z,25.30
2022-08-26T16:55:56.322Z,25.40
2022-08-26T16:58:23.130Z,25.30
2022-08-26T17:00:50.460Z,25.30
2022-08-26T17:03:17.711Z,25.30
2022-08-26T17:05:44.582Z,25.30
2022-08-26T17:08:14.505Z,25.30
2022-08-26T17:10:49.641Z,25.30
2022-08-26T17:13:35.474Z,25.30
2022-08-26T17:16:04.773Z,25.30
2022-08-26T17:18:32.773Z,25.30
2022-08-26T17:21:05.733Z,25.30
2022-08-26T17:23:32.994Z,25.30
2022-08-26T17:25:59.806Z,25.20
2022-08-26T17:28:26.553Z,25.20
2022-08-26T17:30:55.379Z,25.20
2022-08-26T17:33:24.567Z,25.20
2022-08-26T17:35:52.966Z,25.30
2022-08-26T17:38:21.058Z,25.20
2022-08-26T17:40:48.641Z,25.20
2022-08-26T17:43:15.498Z,25.20
2022-08-26T17:45:43.458Z,25.20
2022-08-26T17:48:11.234Z,25.20
2022-08-26T17:50:42.715Z,25.20
2022-08-26T17:53:12.952Z,25.20
2022-08-26T17:55:47.587Z,25.20
2022-08-26T17:58:16.406Z,25.20
2022-08-26T18:00:54.477Z,25.20
2022-08-26T18:03:21.165Z,25.20
2022-08-26T18:05:50.724Z,25.20
2022-08-26T18:08:17.660Z,25.20
2022-08-26T18:10:44.741Z,25.20
2022-08-26T18:13:11.699Z,25.20
2022-08-26T18:15:40.035Z,25.20
2022-08-26T18:18:06.916Z,25.20
2022-08-26T18:20:33.782Z,25.20
2022-08-26T18:23:00.578Z,25.20
2022-08-26T18:25:27.427Z,25.20
2022-08-26T18:27:54.248Z,25.20
2022-08-26T18:30:22.194Z,25.20
2022-08-26T18:32:50.771Z,25.20
2022-08-26T18:35:18.709Z,25.10
2022-08-26T18:37:45.893Z,25.20
2022-08-26T18:40:14.411Z,25.10
2022-08-26T18:42:41.401Z,25.20
2022-08-26T18:45:09.423Z,25.10
2022-08-26T18:47:36.380Z,25.20
2022-08-26T18:50:04.388Z,25.10
2022-08-26T18:52:31.664Z,25.10
2022-08-26T18:54:59.429Z,25.10
2022-08-26T18:57:26.117Z,25.10
2022-08-26T18:59:52.888Z,25.10
2022-08-26T19:02:19.689Z,25.10
2022-08-26T19:04:46.500Z,25.10
2022-08-26T19:07:14.574Z,25.10
2022-08-26T19:09:41.330Z,25.10
2022-08-26T19:12:08.666Z,25.10
2022-08-26T19:14:36.030Z,25.10
2022-08-26T19:17:03.760Z,25.10
2022-08-26T19:19:31.607Z,25.10
2022-08-26T19:21:58.270Z,25.10
2022-08-26T19:24:28.155Z,25.10
2022-08-26T19:26:58.772Z,25.00
2022-08-26T19:29:28.723Z,25.00
2022-08-26T19:31:56.413Z,25.00
2022-08-26T19:34:23.356Z,25.00
2022-08-26T19:36:53.075Z,25.00
2022-08-26T19:39:21.209Z,25.00
2022-08-26T19:41:47.998Z,25.00
2022-08-26T19:44:38.308Z,25.00
2022-08-26T19:47:07.406Z,25.00
2022-08-26T19:49:35.047Z,25.00
2022-08-26T19:52:02.942Z,25.00
2022-08-26T19:54:29.778Z,25.00
2022-08-26T19:56:56.761Z,25.00
2022-08-26T19:59:23.705Z,24.90
2022-08-26T20:02:00.637Z,25.00
2022-08-26T20:04:29.607Z,25.00
2022-08-26T20:06:58.820Z,25.00
2022-08-26T20:09:28.340Z,25.00
2022-08-26T20:11:56.855Z,24.90
2022-08-26T20:14:24.109Z,25.00
2022-08-26T20:16:51.010Z,24.90
2022-08-26T20:19:37.673Z,24.90
2022-08-26T20:22:05.685Z,24.90
2022-08-26T20:24:33.353Z,24.90
2022-08-26T20:27:02.359Z,24.90
2022-08-26T20:29:31.242Z,24.90
2022-08-26T20:31:58.736Z,24.90
2022-08-26T20:34:26.394Z,24.90
2022-08-26T20:36:53.195Z,24.90
2022-08-26T20:39:21.491Z,24.90
2022-08-26T20:41:49.048Z,24.90
2022-08-26T20:44:17.503Z,24.90
2022-08-26T20:46:45.062Z,24.90
2022-08-26T20:49:12.609Z,24.90
2022-08-26T20:51:39.700Z,24.90
2022-08-26T20:54:10.705Z,24.90
2022-08-26T20:56:38.118Z,24.90
2022-08-26T20:59:07.158Z,24.90
2022-08-26T21:01:36.072Z,24.90
2022-08-26T21:04:05.785Z,24.90
2022-08-26T21:06:35.790Z,24.80
2022-08-26T21:09:04.726Z,24.90
2022-08-26T21:11:32.081Z,24.80
2022-08-26T21:14:07.004Z,24.80
2022-08-26T21:16:43.926Z,24.80
2022-08-26T21:19:13.047Z,24.80
2022-08-26T21:21:40.799Z,24.80
2022-08-26T21:24:08.453Z,24.80
2022-08-26T21:26:35.424Z,24.80
2022-08-26T21:29:02.541Z,24.80
2022-08-26T21:31:31.679Z,24.80
2022-08-26T21:33:59.392Z,24.80
2022-08-26T21:36:26.537Z,24.80
2022-08-26T21:38:56.272Z,24.80
2022-08-26T21:41:24.149Z,24.80
2022-08-26T21:43:53.594Z,24.80
2022-08-26T21:46:23.466Z,24.70
2022-08-26T21:48:54.822Z,24.70
2022-08-26T21:51:23.559Z,24.70
2022-08-26T21:53:52.684Z,24.70
2022-08-26T21:56:20.592Z,24.70
2022-08-26T21:58:47.498Z,24.70
2022-08-26T22:01:20.602Z,24.70
2022-08-26T22:03:49.818Z,24.70
2022-08-26T22:06:19.663Z,24.70
2022-08-26T22:08:46.359Z,25.10
2022-08-26T22:11:14.180Z,24.70
2022-08-26T22:13:42.426Z,24.70
2022-08-26T22:16:10.032Z,24.70
2022-08-26T22:18:37.785Z,24.70
2022-08-26T22:21:10.710Z,24.70
2022-08-26T22:23:38.437Z,24.70
2022-08-26T22:26:07.642Z,24.70
2022-08-26T22:28:35.462Z,24.70
2022-08-26T22:31:02.539Z,24.70
2022-08-26T22:33:29.479Z,24.60
2022-08-26T22:35:56.297Z,24.60
2022-08-26T22:38:23.889Z,24.60
2022-08-26T22:40:59.466Z,24.70
2022-08-26T22:43:31.478Z,24.60
2022-08-26T22:45:58.198Z,24.60
2022-08-26T22:48:27.111Z,24.60
2022-08-26T22:50:59.993Z,24.60
2022-08-26T22:53:27.274Z,24.60
2022-08-26T22:55:54.343Z,24.60
2022-08-26T22:58:30.980Z,24.60
2022-08-26T23:00:59.293Z,24.60
2022-08-26T23:03:26.701Z,24.50
2022-08-26T23:06:03.408Z,24.60
2022-08-26T23:08:30.190Z,24.60
2022-08-26T23:10:59.528Z,24.50
2022-08-26T23:13:26.210Z,24.50
2022-08-26T23:16:01.180Z,24.50
2022-08-26T23:18:27.916Z,24.50
2022-08-26T23:20:55.720Z,24.50
2022-08-26T23:23:24.315Z,24.50
2022-08-26T23:25:51.150Z,24.50
2022-08-26T23:28:21.190Z,24.50
2022-08-26T23:30:49.099Z,24.50
2022-08-26T23:33:15.856Z,24.50
2022-08-26T23:35:42.556Z,24.50
2022-08-26T23:38:10.089Z,24.50
2022-08-26T23:40:41.308Z,24.50
2022-08-26T23:43:11.211Z,24.50
2022-08-26T23:45:41.253Z,24.50
2022-08-26T23:48:08.037Z,24.50
2022-08-26T23:50:53.303Z,24.50
2022-08-26T23:53:22.739Z,24.50
2022-08-26T23:55:51.798Z,24.40
2022-08-26T23:58:20.574Z,24.50
